DucheSS Of Scandinavia — OUZI2 — position and weather

sailwx.info

Track history (hours):
 
Tides and Currents Weather Stations Pressure Air Temp Water Temp Dewpoint Dewpoint Depression Visibility Wind Speed Wind Dir Waves Ship Positions

DucheSS Of Scandinavia

Operator: DFDS A/S

Last reported at 2014-Sep-23 19:29 UTC. Time now 2014-Sep-23 20:25 UTC.
Position N 59°06' E 010°14'.

Length 134 m; draft 5.2 m.

Type: Passenger vessel. MMSI: 219002929.

Date/timePositionNaut miles runAvg speedWind from/ knotsBaromVisibWave heightAir tempDewpointWater temp
2014-Sep-23 19:29N 59°06' E 010°14'0 0.0
2014-Sep-23 18:29N 59°06' E 010°14'0 0.0
2014-Sep-23 17:33N 59°06' E 010°14'1 1.4
2014-Sep-23 16:33N 59°08' E 010°14'1010.2
2014-Sep-23 15:33N 59°01' E 010°29'1515.0
2014-Sep-23 14:33N 59°00' E 010°58'8 7.6
2014-Sep-23 13:33N 58°56' E 011°10'1212.1
2014-Sep-23 12:33N 59°01' E 010°49'1615.8
2014-Sep-23 11:33N 59°01' E 010°19'7 6.8
2014-Sep-23 10:33N 59°08' E 010°14'7 7.0
2014-Sep-23 09:33N 59°01' E 010°20'1514.6
2014-Sep-23 08:33N 59°02' E 010°48'1312.6
2014-Sep-23 07:33N 58°56' E 011°10'8 7.7
2014-Sep-23 06:33N 58°60' E 010°57'1515.4
2014-Sep-23 05:33N 59°01' E 010°27'10 9.9
2014-Sep-23 04:33N 59°08' E 010°14'1 1.3
2014-Sep-23 03:33N 59°06' E 010°14'0 0.2
2014-Sep-23 02:33N 59°06' E 010°14'0 0.0
2014-Sep-23 01:31N 59°06' E 010°14'0 0.0
2014-Sep-23 00:29N 59°06' E 010°14'0 0.0
2014-Sep-22 23:32N 59°06' E 010°14'0 0.0
2014-Sep-22 22:33N 59°06' E 010°14'0 0.0
2014-Sep-22 21:31N 59°06' E 010°14'0 0.0
2014-Sep-22 20:19N 59°06' E 010°14'0 0.0
2014-Sep-22 19:20N 59°06' E 010°14'0 0.0
2014-Sep-22 18:33N 59°06' E 010°14'0 0.0
2014-Sep-22 17:27N 59°06' E 010°14'1 1.6
2014-Sep-22 16:33N 59°08' E 010°14'9 9.0
2014-Sep-22 15:33N 59°01' E 010°25'1514.9
2014-Sep-22 14:33N 59°01' E 010°54'9 9.4
2014-Sep-22 13:33N 58°56' E 011°10'1111.1
2014-Sep-22 12:33N 59°01' E 010°51'1716.8
2014-Sep-22 11:33N 59°01' E 010°18'7 6.8
2014-Sep-22 10:33N 59°08' E 010°14'7 6.6
2014-Sep-22 09:33N 59°01' E 010°19'1515.4
2014-Sep-22 08:33N 59°02' E 010°48'1312.5
2014-Sep-22 07:33N 58°56' E 011°10'8 7.7
2014-Sep-22 06:33N 59°00' E 010°57'1615.5
2014-Sep-22 05:33N 59°01' E 010°27'10 9.9
2014-Sep-22 04:33N 59°08' E 010°14'1 1.4
2014-Sep-22 03:33N 59°06' E 010°14'0 0.0
2014-Sep-22 02:30N 59°06' E 010°14'0 0.0
2014-Sep-22 01:33N 59°06' E 010°14'0 0.0
2014-Sep-22 00:31N 59°06' E 010°14'0 0.0
2014-Sep-21 23:32N 59°06' E 010°14'0 0.0
2014-Sep-21 22:32N 59°06' E 010°14'0 0.0
2014-Sep-21 21:33N 59°06' E 010°14'0 0.0
2014-Sep-21 20:33N 59°06' E 010°14'0 0.0
2014-Sep-21 19:28N 59°06' E 010°14'0 0.0
2014-Sep-21 18:32N 59°06' E 010°14'0 0.0
2014-Sep-21 17:33N 59°06' E 010°14'1 1.4
2014-Sep-21 16:33N 59°08' E 010°14'1010.0
2014-Sep-21 15:34N 59°01' E 010°28'1615.6
2014-Sep-21 14:33N 58°60' E 010°58'7 7.3
2014-Sep-21 13:33N 58°56' E 011°10'1212.5
2014-Sep-21 12:33N 59°01' E 010°49'1615.8
2014-Sep-21 11:33N 59°01' E 010°18'7 6.7
2014-Sep-21 10:33N 59°08' E 010°14'7 6.6
2014-Sep-21 09:34N 59°01' E 010°19'1615.6
2014-Sep-21 08:33N 59°01' E 010°49'1212.2
2014-Sep-21 07:33N 58°56' E 011°10'9 8.6
2014-Sep-21 06:33N 59°00' E 010°56'1615.9
2014-Sep-21 05:33N 59°01' E 010°25'9 9.0
2014-Sep-21 04:33N 59°08' E 010°14'1 1.4
2014-Sep-21 03:33N 59°06' E 010°14'0 0.0
2014-Sep-21 02:30N 59°06' E 010°14'0 0.0
2014-Sep-21 01:30N 59°06' E 010°14'0 0.0
2014-Sep-21 00:25N 59°06' E 010°14'0 0.0
2014-Sep-20 23:26N 59°06' E 010°14'0 0.0
2014-Sep-20 22:32N 59°06' E 010°14'0 0.0
2014-Sep-20 21:33N 59°06' E 010°14'0 0.0
2014-Sep-20 20:19N 59°06' E 010°14'0 0.0
2014-Sep-20 19:28N 59°06' E 010°14'0 0.0
2014-Sep-20 18:29N 59°06' E 010°14'0 0.0
2014-Sep-20 17:30N 59°06' E 010°14'1 1.4
2014-Sep-20 16:33N 59°07' E 010°14'1110.7
2014-Sep-20 15:33N 59°01' E 010°29'1414.5
2014-Sep-20 14:34N 59°00' E 010°57'8 7.7
2014-Sep-20 13:33N 58°56' E 011°10'1312.9
2014-Sep-20 12:33N 59°02' E 010°48'1716.6
2014-Sep-20 11:33N 59°02' E 010°15'5 5.5
2014-Sep-20 10:34N 59°08' E 010°14'7 7.1
2014-Sep-20 09:33N 59°01' E 010°20'1515.0
2014-Sep-20 08:33N 59°02' E 010°49'1212.1
2014-Sep-20 07:33N 58°56' E 011°10'10 9.6
2014-Sep-20 06:33N 59°01' E 010°54'1717.0
2014-Sep-20 05:33N 59°01' E 010°21'8 7.6
2014-Sep-20 04:33N 59°08' E 010°14'1 1.4
2014-Sep-20 03:33N 59°06' E 010°14'0 0.0
2014-Sep-20 02:33N 59°06' E 010°14'0 0.0
2014-Sep-20 01:33N 59°06' E 010°14'0 0.0
2014-Sep-20 00:33N 59°06' E 010°14'0 0.0
2014-Sep-19 23:34N 59°06' E 010°14'0 0.0
2014-Sep-19 22:33N 59°06' E 010°14'0 0.0
2014-Sep-19 21:33N 59°06' E 010°14'0 0.0
2014-Sep-19 20:34N 59°06' E 010°14'0 0.0
2014-Sep-19 19:33N 59°06' E 010°14'0 0.0
2014-Sep-19 18:34N 59°06' E 010°14'0 0.0
2014-Sep-19 17:33N 59°06' E 010°14'1 1.4
2014-Sep-19 16:33N 59°08' E 010°14'10 9.9
2014-Sep-19 15:33N 59°01' E 010°28'1515.0
2014-Sep-19 14:33N 59°00' E 010°57'8 8.0
2014-Sep-19 13:33N 58°56' E 011°10'1211.8
2014-Sep-19 12:33N 59°01' E 010°50'1616.4
2014-Sep-19 11:33N 59°01' E 010°18'7 6.6
2014-Sep-19 10:34N 59°08' E 010°14'7 7.0
2014-Sep-19 09:33N 59°01' E 010°20'1615.7
2014-Sep-19 08:33N 59°01' E 010°50'1111.5
2014-Sep-19 07:33N 58°56' E 011°10'9 9.2
2014-Sep-19 06:33N 59°00' E 010°55'1615.5
2014-Sep-19 05:33N 59°01' E 010°24'9 8.8
2014-Sep-19 04:33N 59°08' E 010°14'1 1.4
2014-Sep-19 03:33N 59°06' E 010°14'0 0.0
2014-Sep-19 02:33N 59°06' E 010°14'0 0.0
2014-Sep-19 01:33N 59°06' E 010°14'0 0.0
2014-Sep-19 00:33N 59°06' E 010°14'0 0.0
2014-Sep-18 23:33N 59°06' E 010°14'0 0.0
2014-Sep-18 22:33N 59°06' E 010°14'0 0.0
2014-Sep-18 21:33N 59°06' E 010°14'0 0.0
2014-Sep-18 20:33N 59°06' E 010°14'0 0.0
2014-Sep-18 19:33N 59°06' E 010°14'0 0.0
2014-Sep-18 18:33N 59°06' E 010°14'0 0.0
2014-Sep-18 17:33N 59°06' E 010°14'1 1.3
2014-Sep-18 16:33N 59°07' E 010°14'10 9.8
2014-Sep-18 15:34N 59°01' E 010°27'1414.4
2014-Sep-18 14:33N 59°00' E 010°55'9 8.9
2014-Sep-18 13:34N 58°56' E 011°10'1211.9
2014-Sep-18 12:33N 59°01' E 010°49'1615.8
2014-Sep-18 11:33N 59°01' E 010°19'7 6.9
2014-Sep-18 10:33N 59°08' E 010°14'7 7.0
2014-Sep-18 09:33N 59°01' E 010°20'1515.0
2014-Sep-18 08:33N 59°01' E 010°49'1212.2
2014-Sep-18 07:33N 58°56' E 011°10'9 9.2
2014-Sep-18 06:33N 59°00' E 010°55'1615.8
2014-Sep-18 05:33N 59°01' E 010°24'9 8.6
2014-Sep-18 04:33N 59°08' E 010°14'1 1.4
2014-Sep-18 03:34N 59°06' E 010°14'0 0.0
2014-Sep-18 02:33N 59°06' E 010°14'0 0.0
2014-Sep-18 01:34N 59°06' E 010°14'0 0.0
2014-Sep-18 00:33N 59°06' E 010°14'0 0.0
2014-Sep-17 23:33N 59°06' E 010°14'0 0.0
2014-Sep-17 22:33N 59°06' E 010°14'0 0.0
2014-Sep-17 21:33N 59°06' E 010°14'0 0.0
2014-Sep-17 20:33N 59°06' E 010°14'0 0.0
2014-Sep-17 19:34N 59°06' E 010°14'0 0.0
2014-Sep-17 18:34N 59°06' E 010°14'0 0.0
2014-Sep-17 17:33N 59°06' E 010°14'1 1.3
2014-Sep-17 16:33N 59°07' E 010°14'10 9.9
2014-Sep-17 15:33N 59°01' E 010°28'1414.5
2014-Sep-17 14:33N 59°00' E 010°56'8 8.4
2014-Sep-17 13:33N 58°56' E 011°10'1211.7
2014-Sep-17 12:33N 59°01' E 010°50'1716.6
2014-Sep-17 11:33N 59°01' E 010°18'7 6.6
2014-Sep-17 10:33N 59°08' E 010°14'7 7.1
2014-Sep-17 09:34N 59°01' E 010°20'1514.9
2014-Sep-17 08:33N 59°01' E 010°49'1212.1
2014-Sep-17 07:33N 58°56' E 011°10'9 9.4
2014-Sep-17 06:33N 59°01' E 010°54'1616.3
2014-Sep-17 05:34N 59°01' E 010°23'8 8.1
2014-Sep-17 04:33N 59°08' E 010°14'1 1.4
2014-Sep-17 03:33N 59°06' E 010°14'0 0.0
2014-Sep-17 02:33N 59°06' E 010°14'0 0.0
2014-Sep-17 01:33N 59°06' E 010°14'0 0.0
2014-Sep-17 00:34N 59°06' E 010°14'0 0.0
2014-Sep-16 23:34N 59°06' E 010°14'0 0.0
2014-Sep-16 22:33N 59°06' E 010°14'0 0.0
2014-Sep-16 21:33N 59°06' E 010°14'0 0.0
2014-Sep-16 20:33N 59°06' E 010°14'0 0.0
2014-Sep-16 19:34N 59°06' E 010°14'0 0.0
2014-Sep-16 18:34N 59°06' E 010°14'0 0.0
2014-Sep-16 17:33N 59°06' E 010°14'1 1.2
2014-Sep-16 16:34N 59°07' E 010°14'1010.3
2014-Sep-16 15:33N 59°01' E 010°29'1514.9
2014-Sep-16 14:34N 58°60' E 010°58'7 7.4
2014-Sep-16 13:33N 58°56' E 011°10'1312.9
2014-Sep-16 12:34N 59°02' E 010°48'1616.1
2014-Sep-16 11:33N 59°02' E 010°16'6 6.1
2014-Sep-16 10:33N 59°08' E 010°14'7 7.3
2014-Sep-16 09:33N 59°01' E 010°21'1514.9
2014-Sep-16 08:33N 59°01' E 010°50'1211.8
2014-Sep-16 07:33N 58°56' E 011°10'9 9.0
2014-Sep-16 06:33N 59°00' E 010°55'1616.2
2014-Sep-16 05:33N 59°01' E 010°23'9 8.6
2014-Sep-16 04:34N 59°08' E 010°14'1 1.4
2014-Sep-16 03:33N 59°06' E 010°14'0 0.0
2014-Sep-16 02:32N 59°06' E 010°14'0 0.0
2014-Sep-16 01:33N 59°06' E 010°14'0 0.0
2014-Sep-16 00:33N 59°06' E 010°14'0 0.0
2014-Sep-15 23:31N 59°06' E 010°14'0 0.0
2014-Sep-15 22:29N 59°06' E 010°14'0 0.0
2014-Sep-15 21:23N 59°06' E 010°14'0 0.0
2014-Sep-15 20:30N 59°06' E 010°14'0 0.0
2014-Sep-15 19:31N 59°06' E 010°14'0 0.0
2014-Sep-15 18:31N 59°06' E 010°14'0 0.0
2014-Sep-15 17:33N 59°06' E 010°14'1 1.3
2014-Sep-15 16:32N 59°07' E 010°14'10 9.9
2014-Sep-15 15:33N 59°01' E 010°28'1414.5
2014-Sep-15 14:33N 59°00' E 010°56'9 8.7
2014-Sep-15 13:33N 58°56' E 011°10'1312.8
2014-Sep-15 12:33N 59°02' E 010°48'1616.3
2014-Sep-15 11:34N 59°02' E 010°16'6 6.1
2014-Sep-15 10:33N 59°08' E 010°14'7 7.1
2014-Sep-15 09:33N 59°01' E 010°20'1515.0
2014-Sep-15 08:33N 59°01' E 010°49'1212.0
2014-Sep-15 07:33N 58°56' E 011°10'9 8.7
2014-Sep-15 06:33N 59°00' E 010°55'1615.7
2014-Sep-15 05:33N 59°01' E 010°25'9 9.1
2014-Sep-15 04:34N 59°08' E 010°14'1 1.4
2014-Sep-15 03:33N 59°06' E 010°14'0 0.0
2014-Sep-15 02:33N 59°06' E 010°14'0 0.0
2014-Sep-15 01:34N 59°06' E 010°14'0 0.0
2014-Sep-15 00:34N 59°06' E 010°14'0 0.0
2014-Sep-14 23:33N 59°06' E 010°14'0 0.0
2014-Sep-14 22:33N 59°06' E 010°14'0 0.0
2014-Sep-14 21:33N 59°06' E 010°14'0 0.0
2014-Sep-14 20:34N 59°06' E 010°14'0 0.0
2014-Sep-14 19:33N 59°06' E 010°14'0 0.0
2014-Sep-14 18:34N 59°06' E 010°14'0 0.0
2014-Sep-14 17:33N 59°06' E 010°14'1 1.2
2014-Sep-14 16:33N 59°07' E 010°14'1010.3
2014-Sep-14 15:33N 59°01' E 010°29'1515.0
2014-Sep-14 14:33N 59°00' E 010°58'8 7.6
2014-Sep-14 13:33N 58°56' E 011°10'1313.0
2014-Sep-14 12:33N 59°02' E 010°47'1616.3
2014-Sep-14 11:34N 59°02' E 010°16'6 5.9
2014-Sep-14 10:34N 59°08' E 010°14'7 6.9
2014-Sep-14 09:33N 59°01' E 010°20'1514.8
2014-Sep-14 08:33N 59°01' E 010°48'1212.4
2014-Sep-14 07:33N 58°56' E 011°10'9 8.8
2014-Sep-14 06:33N 59°00' E 010°55'1616.1
2014-Sep-14 05:33N 59°01' E 010°24'9 8.8
2014-Sep-14 04:33N 59°08' E 010°14'1 1.4
2014-Sep-14 03:33N 59°06' E 010°14'0 0.0
2014-Sep-14 01:33N 59°06' E 010°14'0 0.0
2014-Sep-13 21:33N 59°06' E 010°14'0 0.0
2014-Sep-13 20:33N 59°06' E 010°14'0 0.0
2014-Sep-13 19:33N 59°06' E 010°14'  
Track history (hours):
 
Tides and Currents Weather Stations Pressure Air Temp Water Temp Dewpoint Dewpoint Depression Visibility Wind Speed Wind Dir Waves Ship Positions

DucheSS Of Scandinavia

Operator: DFDS A/S

Last reported at 2014-Sep-23 19:29 UTC. Time now 2014-Sep-23 20:25 UTC.
Position N 59°06' E 010°14'.

Length 134 m; draft 5.2 m.

Type: Passenger vessel. MMSI: 219002929.

Date/timePositionNaut miles runAvg speedWind from/ knotsBaromVisibWave heightAir tempDewpointWater temp
2014-Sep-23 19:29N 59°06' E 010°14'0 0.0
2014-Sep-23 18:29N 59°06' E 010°14'0 0.0
2014-Sep-23 17:33N 59°06' E 010°14'1 1.4
2014-Sep-23 16:33N 59°08' E 010°14'1010.2
2014-Sep-23 15:33N 59°01' E 010°29'1515.0
2014-Sep-23 14:33N 59°00' E 010°58'8 7.6
2014-Sep-23 13:33N 58°56' E 011°10'1212.1
2014-Sep-23 12:33N 59°01' E 010°49'1615.8
2014-Sep-23 11:33N 59°01' E 010°19'7 6.8
2014-Sep-23 10:33N 59°08' E 010°14'7 7.0
2014-Sep-23 09:33N 59°01' E 010°20'1514.6
2014-Sep-23 08:33N 59°02' E 010°48'1312.6
2014-Sep-23 07:33N 58°56' E 011°10'8 7.7
2014-Sep-23 06:33N 58°60' E 010°57'1515.4
2014-Sep-23 05:33N 59°01' E 010°27'10 9.9
2014-Sep-23 04:33N 59°08' E 010°14'1 1.3
2014-Sep-23 03:33N 59°06' E 010°14'0 0.2
2014-Sep-23 02:33N 59°06' E 010°14'0 0.0
2014-Sep-23 01:31N 59°06' E 010°14'0 0.0
2014-Sep-23 00:29N 59°06' E 010°14'0 0.0
2014-Sep-22 23:32N 59°06' E 010°14'0 0.0
2014-Sep-22 22:33N 59°06' E 010°14'0 0.0
2014-Sep-22 21:31N 59°06' E 010°14'0 0.0
2014-Sep-22 20:19N 59°06' E 010°14'0 0.0
2014-Sep-22 19:20N 59°06' E 010°14'0 0.0
2014-Sep-22 18:33N 59°06' E 010°14'0 0.0
2014-Sep-22 17:27N 59°06' E 010°14'1 1.6
2014-Sep-22 16:33N 59°08' E 010°14'9 9.0
2014-Sep-22 15:33N 59°01' E 010°25'1514.9
2014-Sep-22 14:33N 59°01' E 010°54'9 9.4
2014-Sep-22 13:33N 58°56' E 011°10'1111.1
2014-Sep-22 12:33N 59°01' E 010°51'1716.8
2014-Sep-22 11:33N 59°01' E 010°18'7 6.8
2014-Sep-22 10:33N 59°08' E 010°14'7 6.6
2014-Sep-22 09:33N 59°01' E 010°19'1515.4
2014-Sep-22 08:33N 59°02' E 010°48'1312.5
2014-Sep-22 07:33N 58°56' E 011°10'8 7.7
2014-Sep-22 06:33N 59°00' E 010°57'1615.5
2014-Sep-22 05:33N 59°01' E 010°27'10 9.9
2014-Sep-22 04:33N 59°08' E 010°14'1 1.4
2014-Sep-22 03:33N 59°06' E 010°14'0 0.0
2014-Sep-22 02:30N 59°06' E 010°14'0 0.0
2014-Sep-22 01:33N 59°06' E 010°14'0 0.0
2014-Sep-22 00:31N 59°06' E 010°14'0 0.0
2014-Sep-21 23:32N 59°06' E 010°14'0 0.0
2014-Sep-21 22:32N 59°06' E 010°14'0 0.0
2014-Sep-21 21:33N 59°06' E 010°14'0 0.0
2014-Sep-21 20:33N 59°06' E 010°14'0 0.0
2014-Sep-21 19:28N 59°06' E 010°14'0 0.0
2014-Sep-21 18:32N 59°06' E 010°14'0 0.0
2014-Sep-21 17:33N 59°06' E 010°14'1 1.4
2014-Sep-21 16:33N 59°08' E 010°14'1010.0
2014-Sep-21 15:34N 59°01' E 010°28'1615.6
2014-Sep-21 14:33N 58°60' E 010°58'7 7.3
2014-Sep-21 13:33N 58°56' E 011°10'1212.5
2014-Sep-21 12:33N 59°01' E 010°49'1615.8
2014-Sep-21 11:33N 59°01' E 010°18'7 6.7
2014-Sep-21 10:33N 59°08' E 010°14'7 6.6
2014-Sep-21 09:34N 59°01' E 010°19'1615.6
2014-Sep-21 08:33N 59°01' E 010°49'1212.2
2014-Sep-21 07:33N 58°56' E 011°10'9 8.6
2014-Sep-21 06:33N 59°00' E 010°56'1615.9
2014-Sep-21 05:33N 59°01' E 010°25'9 9.0
2014-Sep-21 04:33N 59°08' E 010°14'1 1.4
2014-Sep-21 03:33N 59°06' E 010°14'0 0.0
2014-Sep-21 02:30N 59°06' E 010°14'0 0.0
2014-Sep-21 01:30N 59°06' E 010°14'0 0.0
2014-Sep-21 00:25N 59°06' E 010°14'0 0.0
2014-Sep-20 23:26N 59°06' E 010°14'0 0.0
2014-Sep-20 22:32N 59°06' E 010°14'0 0.0
2014-Sep-20 21:33N 59°06' E 010°14'0 0.0
2014-Sep-20 20:19N 59°06' E 010°14'0 0.0
2014-Sep-20 19:28N 59°06' E 010°14'0 0.0
2014-Sep-20 18:29N 59°06' E 010°14'0 0.0
2014-Sep-20 17:30N 59°06' E 010°14'1 1.4
2014-Sep-20 16:33N 59°07' E 010°14'1110.7
2014-Sep-20 15:33N 59°01' E 010°29'1414.5
2014-Sep-20 14:34N 59°00' E 010°57'8 7.7
2014-Sep-20 13:33N 58°56' E 011°10'1312.9
2014-Sep-20 12:33N 59°02' E 010°48'1716.6
2014-Sep-20 11:33N 59°02' E 010°15'5 5.5
2014-Sep-20 10:34N 59°08' E 010°14'7 7.1
2014-Sep-20 09:33N 59°01' E 010°20'1515.0
2014-Sep-20 08:33N 59°02' E 010°49'1212.1
2014-Sep-20 07:33N 58°56' E 011°10'10 9.6
2014-Sep-20 06:33N 59°01' E 010°54'1717.0
2014-Sep-20 05:33N 59°01' E 010°21'8 7.6
2014-Sep-20 04:33N 59°08' E 010°14'1 1.4
2014-Sep-20 03:33N 59°06' E 010°14'0 0.0
2014-Sep-20 02:33N 59°06' E 010°14'0 0.0
2014-Sep-20 01:33N 59°06' E 010°14'0 0.0
2014-Sep-20 00:33N 59°06' E 010°14'0 0.0
2014-Sep-19 23:34N 59°06' E 010°14'0 0.0
2014-Sep-19 22:33N 59°06' E 010°14'0 0.0
2014-Sep-19 21:33N 59°06' E 010°14'0 0.0
2014-Sep-19 20:34N 59°06' E 010°14'0 0.0
2014-Sep-19 19:33N 59°06' E 010°14'0 0.0
2014-Sep-19 18:34N 59°06' E 010°14'0 0.0
2014-Sep-19 17:33N 59°06' E 010°14'1 1.4
2014-Sep-19 16:33N 59°08' E 010°14'10 9.9
2014-Sep-19 15:33N 59°01' E 010°28'1515.0
2014-Sep-19 14:33N 59°00' E 010°57'8 8.0
2014-Sep-19 13:33N 58°56' E 011°10'1211.8
2014-Sep-19 12:33N 59°01' E 010°50'1616.4
2014-Sep-19 11:33N 59°01' E 010°18'7 6.6
2014-Sep-19 10:34N 59°08' E 010°14'7 7.0
2014-Sep-19 09:33N 59°01' E 010°20'1615.7
2014-Sep-19 08:33N 59°01' E 010°50'1111.5
2014-Sep-19 07:33N 58°56' E 011°10'9 9.2
2014-Sep-19 06:33N 59°00' E 010°55'1615.5
2014-Sep-19 05:33N 59°01' E 010°24'9 8.8
2014-Sep-19 04:33N 59°08' E 010°14'1 1.4
2014-Sep-19 03:33N 59°06' E 010°14'0 0.0
2014-Sep-19 02:33N 59°06' E 010°14'0 0.0
2014-Sep-19 01:33N 59°06' E 010°14'0 0.0
2014-Sep-19 00:33N 59°06' E 010°14'0 0.0
2014-Sep-18 23:33N 59°06' E 010°14'0 0.0
2014-Sep-18 22:33N 59°06' E 010°14'0 0.0
2014-Sep-18 21:33N 59°06' E 010°14'0 0.0
2014-Sep-18 20:33N 59°06' E 010°14'0 0.0
2014-Sep-18 19:33N 59°06' E 010°14'0 0.0
2014-Sep-18 18:33N 59°06' E 010°14'0 0.0
2014-Sep-18 17:33N 59°06' E 010°14'1 1.3
2014-Sep-18 16:33N 59°07' E 010°14'10 9.8
2014-Sep-18 15:34N 59°01' E 010°27'1414.4
2014-Sep-18 14:33N 59°00' E 010°55'9 8.9
2014-Sep-18 13:34N 58°56' E 011°10'1211.9
2014-Sep-18 12:33N 59°01' E 010°49'1615.8
2014-Sep-18 11:33N 59°01' E 010°19'7 6.9
2014-Sep-18 10:33N 59°08' E 010°14'7 7.0
2014-Sep-18 09:33N 59°01' E 010°20'1515.0
2014-Sep-18 08:33N 59°01' E 010°49'1212.2
2014-Sep-18 07:33N 58°56' E 011°10'9 9.2
2014-Sep-18 06:33N 59°00' E 010°55'1615.8
2014-Sep-18 05:33N 59°01' E 010°24'9 8.6
2014-Sep-18 04:33N 59°08' E 010°14'1 1.4
2014-Sep-18 03:34N 59°06' E 010°14'0 0.0
2014-Sep-18 02:33N 59°06' E 010°14'0 0.0
2014-Sep-18 01:34N 59°06' E 010°14'0 0.0
2014-Sep-18 00:33N 59°06' E 010°14'0 0.0
2014-Sep-17 23:33N 59°06' E 010°14'0 0.0
2014-Sep-17 22:33N 59°06' E 010°14'0 0.0
2014-Sep-17 21:33N 59°06' E 010°14'0 0.0
2014-Sep-17 20:33N 59°06' E 010°14'0 0.0
2014-Sep-17 19:34N 59°06' E 010°14'0 0.0
2014-Sep-17 18:34N 59°06' E 010°14'0 0.0
2014-Sep-17 17:33N 59°06' E 010°14'1 1.3
2014-Sep-17 16:33N 59°07' E 010°14'10 9.9
2014-Sep-17 15:33N 59°01' E 010°28'1414.5
2014-Sep-17 14:33N 59°00' E 010°56'8 8.4
2014-Sep-17 13:33N 58°56' E 011°10'1211.7
2014-Sep-17 12:33N 59°01' E 010°50'1716.6
2014-Sep-17 11:33N 59°01' E 010°18'7 6.6
2014-Sep-17 10:33N 59°08' E 010°14'7 7.1
2014-Sep-17 09:34N 59°01' E 010°20'1514.9
2014-Sep-17 08:33N 59°01' E 010°49'1212.1
2014-Sep-17 07:33N 58°56' E 011°10'9 9.4
2014-Sep-17 06:33N 59°01' E 010°54'1616.3
2014-Sep-17 05:34N 59°01' E 010°23'8 8.1
2014-Sep-17 04:33N 59°08' E 010°14'1 1.4
2014-Sep-17 03:33N 59°06' E 010°14'0 0.0
2014-Sep-17 02:33N 59°06' E 010°14'0 0.0
2014-Sep-17 01:33N 59°06' E 010°14'0 0.0
2014-Sep-17 00:34N 59°06' E 010°14'0 0.0
2014-Sep-16 23:34N 59°06' E 010°14'0 0.0
2014-Sep-16 22:33N 59°06' E 010°14'0 0.0
2014-Sep-16 21:33N 59°06' E 010°14'0 0.0
2014-Sep-16 20:33N 59°06' E 010°14'0 0.0
2014-Sep-16 19:34N 59°06' E 010°14'0 0.0
2014-Sep-16 18:34N 59°06' E 010°14'0 0.0
2014-Sep-16 17:33N 59°06' E 010°14'1 1.2
2014-Sep-16 16:34N 59°07' E 010°14'1010.3
2014-Sep-16 15:33N 59°01' E 010°29'1514.9
2014-Sep-16 14:34N 58°60' E 010°58'7 7.4
2014-Sep-16 13:33N 58°56' E 011°10'1312.9
2014-Sep-16 12:34N 59°02' E 010°48'1616.1
2014-Sep-16 11:33N 59°02' E 010°16'6 6.1
2014-Sep-16 10:33N 59°08' E 010°14'7 7.3
2014-Sep-16 09:33N 59°01' E 010°21'1514.9
2014-Sep-16 08:33N 59°01' E 010°50'1211.8
2014-Sep-16 07:33N 58°56' E 011°10'9 9.0
2014-Sep-16 06:33N 59°00' E 010°55'1616.2
2014-Sep-16 05:33N 59°01' E 010°23'9 8.6
2014-Sep-16 04:34N 59°08' E 010°14'1 1.4
2014-Sep-16 03:33N 59°06' E 010°14'0 0.0
2014-Sep-16 02:32N 59°06' E 010°14'0 0.0
2014-Sep-16 01:33N 59°06' E 010°14'0 0.0
2014-Sep-16 00:33N 59°06' E 010°14'0 0.0
2014-Sep-15 23:31N 59°06' E 010°14'0 0.0
2014-Sep-15 22:29N 59°06' E 010°14'0 0.0
2014-Sep-15 21:23N 59°06' E 010°14'0 0.0
2014-Sep-15 20:30N 59°06' E 010°14'0 0.0
2014-Sep-15 19:31N 59°06' E 010°14'0 0.0
2014-Sep-15 18:31N 59°06' E 010°14'0 0.0
2014-Sep-15 17:33N 59°06' E 010°14'1 1.3
2014-Sep-15 16:32N 59°07' E 010°14'10 9.9
2014-Sep-15 15:33N 59°01' E 010°28'1414.5
2014-Sep-15 14:33N 59°00' E 010°56'9 8.7
2014-Sep-15 13:33N 58°56' E 011°10'1312.8
2014-Sep-15 12:33N 59°02' E 010°48'1616.3
2014-Sep-15 11:34N 59°02' E 010°16'6 6.1
2014-Sep-15 10:33N 59°08' E 010°14'7 7.1
2014-Sep-15 09:33N 59°01' E 010°20'1515.0
2014-Sep-15 08:33N 59°01' E 010°49'1212.0
2014-Sep-15 07:33N 58°56' E 011°10'9 8.7
2014-Sep-15 06:33N 59°00' E 010°55'1615.7
2014-Sep-15 05:33N 59°01' E 010°25'9 9.1
2014-Sep-15 04:34N 59°08' E 010°14'1 1.4
2014-Sep-15 03:33N 59°06' E 010°14'0 0.0
2014-Sep-15 02:33N 59°06' E 010°14'0 0.0
2014-Sep-15 01:34N 59°06' E 010°14'0 0.0
2014-Sep-15 00:34N 59°06' E 010°14'0 0.0
2014-Sep-14 23:33N 59°06' E 010°14'0 0.0
2014-Sep-14 22:33N 59°06' E 010°14'0 0.0
2014-Sep-14 21:33N 59°06' E 010°14'0 0.0
2014-Sep-14 20:34N 59°06' E 010°14'0 0.0
2014-Sep-14 19:33N 59°06' E 010°14'0 0.0
2014-Sep-14 18:34N 59°06' E 010°14'0 0.0
2014-Sep-14 17:33N 59°06' E 010°14'1 1.2
2014-Sep-14 16:33N 59°07' E 010°14'1010.3
2014-Sep-14 15:33N 59°01' E 010°29'1515.0
2014-Sep-14 14:33N 59°00' E 010°58'8 7.6
2014-Sep-14 13:33N 58°56' E 011°10'1313.0
2014-Sep-14 12:33N 59°02' E 010°47'1616.3
2014-Sep-14 11:34N 59°02' E 010°16'6 5.9
2014-Sep-14 10:34N 59°08' E 010°14'7 6.9
2014-Sep-14 09:33N 59°01' E 010°20'1514.8
2014-Sep-14 08:33N 59°01' E 010°48'1212.4
2014-Sep-14 07:33N 58°56' E 011°10'9 8.8
2014-Sep-14 06:33N 59°00' E 010°55'1616.1
2014-Sep-14 05:33N 59°01' E 010°24'9 8.8
2014-Sep-14 04:33N 59°08' E 010°14'1 1.4
2014-Sep-14 03:33N 59°06' E 010°14'0 0.0
2014-Sep-14 01:33N 59°06' E 010°14'0 0.0
2014-Sep-13 21:33N 59°06' E 010°14'0 0.0
2014-Sep-13 20:33N 59°06' E 010°14'0 0.0
2014-Sep-13 19:33N 59°06' E 010°14'  

Dump ship's entire track history